createdAt,value
2019-05-18T00:01:12.909Z,89.76
2019-05-18T00:07:17.542Z,89.40
2019-05-18T00:13:22.114Z,90.59
2019-05-18T00:19:26.808Z,90.71
2019-05-18T00:25:31.389Z,92.30
2019-05-18T00:31:36.016Z,91.57
2019-05-18T00:37:40.571Z,90.47
2019-05-18T00:43:45.113Z,91.25
2019-05-18T00:49:49.679Z,91.22
2019-05-18T00:55:54.295Z,91.01
2019-05-18T01:01:58.853Z,90.25
2019-05-18T01:08:03.411Z,93.35
2019-05-18T01:14:08.040Z,93.48
2019-05-18T01:20:14.261Z,93.50
2019-05-18T01:26:18.898Z,91.61
2019-05-18T01:32:23.516Z,92.26
2019-05-18T01:38:28.227Z,91.98
2019-05-18T01:44:33.317Z,93.50
2019-05-18T01:50:37.875Z,93.51
2019-05-18T01:56:42.431Z,92.26
2019-05-18T02:02:46.994Z,90.43
2019-05-18T02:08:51.615Z,91.88
2019-05-18T02:14:56.199Z,92.77
2019-05-18T02:21:00.768Z,92.30
2019-05-18T02:27:05.395Z,93.32
2019-05-18T02:33:10.049Z,92.58
2019-05-18T02:39:14.585Z,93.43
2019-05-18T02:45:19.287Z,92.86
2019-05-18T02:51:23.935Z,92.62
2019-05-18T02:57:28.492Z,93.25
2019-05-18T03:03:33.059Z,93.34
2019-05-18T03:09:37.686Z,94.79
2019-05-18T03:15:42.229Z,94.72
2019-05-18T03:21:46.836Z,92.94
2019-05-18T03:27:51.462Z,96.31
2019-05-18T03:33:56.129Z,95.28
2019-05-18T03:40:00.681Z,96.52
2019-05-18T03:46:05.364Z,96.97
2019-05-18T03:52:09.913Z,96.19
2019-05-18T03:58:14.473Z,95.39
2019-05-18T04:04:19.024Z,96.63
2019-05-18T04:10:27.323Z,96.39
2019-05-18T04:16:31.876Z,95.95
2019-05-18T04:22:36.529Z,96.45
2019-05-18T04:28:41.060Z,94.91
2019-05-18T04:34:45.606Z,92.98
2019-05-18T04:40:50.290Z,93.61
2019-05-18T04:46:55.020Z,92.07
2019-05-18T04:52:59.602Z,92.87
2019-05-18T04:59:04.245Z,91.97
2019-05-18T05:05:09.056Z,90.60
2019-05-18T05:11:13.599Z,89.37
2019-05-18T05:17:18.144Z,90.23
2019-05-18T05:23:22.770Z,90.48
2019-05-18T05:29:27.393Z,89.69
2019-05-18T05:35:32.020Z,90.11
2019-05-18T05:41:36.570Z,89.87
2019-05-18T05:47:41.126Z,90.26
2019-05-18T05:53:45.686Z,87.07
2019-05-18T05:59:50.244Z,87.34
2019-05-18T06:05:54.816Z,87.06
2019-05-18T06:11:59.405Z,85.74
2019-05-18T06:18:04.029Z,85.26
2019-05-18T06:24:08.627Z,84.84
2019-05-18T06:30:14.138Z,85.68
2019-05-18T06:36:18.731Z,84.94
2019-05-18T06:42:23.340Z,83.68
2019-05-18T06:48:27.941Z,84.89
2019-05-18T06:54:32.569Z,82.21
2019-05-18T07:00:37.141Z,80.43
2019-05-18T07:06:41.747Z,79.46
2019-05-18T07:12:46.392Z,79.37
2019-05-18T07:18:51.307Z,77.62
2019-05-18T07:24:55.981Z,75.21
2019-05-18T07:31:00.554Z,72.71
2019-05-18T07:37:05.580Z,70.17
2019-05-18T07:43:10.237Z,69.63
2019-05-18T07:49:14.827Z,64.70
2019-05-18T07:55:19.455Z,64.61
2019-05-18T08:01:24.230Z,62.43
2019-05-18T08:07:28.829Z,60.98
2019-05-18T08:13:33.408Z,59.99
2019-05-18T08:19:38.108Z,57.38
2019-05-18T08:25:42.748Z,55.18
2019-05-18T08:31:47.324Z,56.47
2019-05-18T08:37:51.972Z,56.27
2019-05-18T08:43:56.681Z,55.53
2019-05-18T08:50:03.156Z,50.02
2019-05-18T08:56:07.823Z,49.13
2019-05-18T09:02:12.672Z,47.94
2019-05-18T09:08:17.286Z,46.36
2019-05-18T09:14:23.535Z,50.32
2019-05-18T09:20:28.225Z,45.41
2019-05-18T09:26:33.240Z,50.82
2019-05-18T09:32:37.799Z,52.37
2019-05-18T09:38:43.173Z,49.60
2019-05-18T09:44:47.788Z,47.85
2019-05-18T09:50:52.342Z,49.40
2019-05-18T09:56:56.921Z,45.66
2019-05-18T10:03:03.382Z,47.68
2019-05-18T10:09:09.406Z,43.34
2019-05-18T10:15:14.403Z,39.76
2019-05-18T10:21:19.001Z,39.39
2019-05-18T10:27:23.770Z,40.14
2019-05-18T10:33:28.334Z,38.56
2019-05-18T10:39:33.150Z,39.61
2019-05-18T10:45:38.424Z,38.52
2019-05-18T10:51:44.282Z,40.10
2019-05-18T10:57:48.943Z,37.65
2019-05-18T11:03:53.632Z,36.87
2019-05-18T11:09:58.864Z,37.47
2019-05-18T11:16:03.475Z,39.91
2019-05-18T11:22:08.935Z,35.77
2019-05-18T11:28:24.392Z,37.70
2019-05-18T11:34:29.193Z,35.29
2019-05-18T11:40:41.540Z,35.13
2019-05-18T11:46:46.266Z,36.09
2019-05-18T11:52:51.916Z,34.43
2019-05-18T11:58:56.865Z,35.46
2019-05-18T12:05:01.635Z,34.82
2019-05-18T12:11:06.449Z,32.59
2019-05-18T12:17:11.086Z,33.34
2019-05-18T12:23:15.778Z,34.83
2019-05-18T12:29:21.392Z,32.05
2019-05-18T12:35:27.023Z,32.97
2019-05-18T12:41:31.869Z,32.11
2019-05-18T12:47:36.574Z,31.82
2019-05-18T12:53:41.320Z,29.73
2019-05-18T12:59:45.982Z,30.47
2019-05-18T13:05:51.729Z,31.26
2019-05-18T13:11:56.498Z,31.24
2019-05-18T13:18:03.223Z,29.52
2019-05-18T13:24:08.642Z,27.65
2019-05-18T13:30:14.864Z,29.19
2019-05-18T13:36:19.666Z,29.62
2019-05-18T13:42:26.030Z,30.86
2019-05-18T13:48:33.463Z,29.33
2019-05-18T13:54:39.193Z,31.20
2019-05-18T14:00:46.091Z,27.55
2019-05-18T14:06:50.657Z,27.93
2019-05-18T14:12:55.278Z,24.44
2019-05-18T14:18:59.916Z,24.75
2019-05-18T14:25:18.564Z,26.32
2019-05-18T14:31:14.815Z,26.46
2019-05-18T14:37:19.648Z,27.58
2019-05-18T14:43:24.281Z,25.60
2019-05-18T14:49:28.940Z,25.34
2019-05-18T14:55:34.214Z,24.94
2019-05-18T15:01:38.985Z,23.99
2019-05-18T15:07:43.603Z,23.32
2019-05-18T15:13:48.318Z,22.87
2019-05-18T15:19:53.816Z,22.42
2019-05-18T15:26:04.907Z,23.72
2019-05-18T15:32:09.569Z,23.82
2019-05-18T15:38:14.563Z,25.31
2019-05-18T15:44:20.564Z,26.22
2019-05-18T15:50:25.556Z,25.03
2019-05-18T15:56:30.288Z,26.79
2019-05-18T16:02:35.043Z,26.34
2019-05-18T16:08:39.758Z,27.30
2019-05-18T16:14:44.450Z,26.64
2019-05-18T16:20:49.114Z,27.49
2019-05-18T16:26:53.816Z,27.54
2019-05-18T16:32:58.372Z,28.45
2019-05-18T16:39:02.958Z,26.76
2019-05-18T16:45:11.404Z,25.96
2019-05-18T16:51:16.073Z,24.84
2019-05-18T16:57:20.784Z,24.63
2019-05-18T17:03:25.412Z,24.40
2019-05-18T17:09:30.014Z,24.27
2019-05-18T17:15:36.371Z,25.27
2019-05-18T17:21:41.026Z,25.37
2019-05-18T17:27:45.597Z,26.24
2019-05-18T17:33:50.251Z,25.50
2019-05-18T17:39:54.835Z,26.61
2019-05-18T17:45:59.449Z,28.65
2019-05-18T17:52:04.138Z,28.40
2019-05-18T17:58:08.854Z,28.96
2019-05-18T18:04:13.525Z,29.52
2019-05-18T18:10:18.643Z,30.89
2019-05-18T18:16:23.183Z,33.65
2019-05-18T18:22:27.780Z,35.10
2019-05-18T18:28:32.415Z,35.14
2019-05-18T18:34:37.110Z,36.55
2019-05-18T18:40:42.002Z,40.29
2019-05-18T18:46:48.265Z,44.92
2019-05-18T18:52:52.898Z,49.50
2019-05-18T18:58:57.621Z,53.11
2019-05-18T19:05:02.915Z,56.44
2019-05-18T19:11:07.789Z,59.79
2019-05-18T19:17:12.497Z,62.71
2019-05-18T19:23:17.091Z,64.04
2019-05-18T19:29:21.822Z,65.87
2019-05-18T19:35:27.222Z,66.85
2019-05-18T19:41:32.125Z,67.84
2019-05-18T19:47:37.643Z,67.43
2019-05-18T19:53:42.549Z,67.81
2019-05-18T19:59:47.858Z,68.67
2019-05-18T20:05:52.561Z,68.94
2019-05-18T20:11:57.229Z,69.29
2019-05-18T20:18:01.896Z,70.49
2019-05-18T20:24:06.619Z,70.62
2019-05-18T20:30:12.161Z,70.62
2019-05-18T20:36:16.852Z,71.17
2019-05-18T20:42:21.695Z,71.58
2019-05-18T20:48:26.770Z,72.27
2019-05-18T20:54:31.564Z,72.87
2019-05-18T21:00:38.458Z,73.22
2019-05-18T21:06:45.416Z,73.94
2019-05-18T21:12:49.359Z,74.60
2019-05-18T21:18:54.110Z,75.62
2019-05-18T21:24:58.722Z,76.37
2019-05-18T21:31:04.674Z,75.70
2019-05-18T21:37:09.659Z,76.65
2019-05-18T21:43:14.470Z,77.12
2019-05-18T21:49:19.932Z,78.06
2019-05-18T21:55:24.553Z,77.28
2019-05-18T22:01:29.252Z,77.62
2019-05-18T22:07:34.006Z,77.93
2019-05-18T22:13:38.559Z,78.01
2019-05-18T22:19:43.200Z,78.41
2019-05-18T22:25:47.768Z,79.39
2019-05-18T22:31:52.435Z,78.04
2019-05-18T22:37:57.056Z,77.37
2019-05-18T22:44:01.714Z,78.32
2019-05-18T22:50:08.400Z,78.56
2019-05-18T22:56:12.991Z,79.18
2019-05-18T23:02:17.557Z,81.02
2019-05-18T23:08:22.238Z,81.39
2019-05-18T23:14:28.384Z,82.14
2019-05-18T23:20:33.006Z,81.34
2019-05-18T23:26:37.705Z,80.76
2019-05-18T23:32:42.331Z,81.83
2019-05-18T23:38:46.938Z,82.39
2019-05-18T23:44:51.555Z,83.91
2019-05-18T23:50:56.172Z,82.92
2019-05-18T23:57:00.902Z,83.03
